sensor_id;sensor_type;location;lat;lon;timestamp;temperature;humidity
28071;DHT22;15383;48.408;9.968;2024-02-16T00:00:08;10.60;99.90
28071;DHT22;15383;48.408;9.968;2024-02-16T00:02:37;10.60;99.90
28071;DHT22;15383;48.408;9.968;2024-02-16T00:05:03;10.60;99.90
28071;DHT22;15383;48.408;9.968;2024-02-16T00:07:30;10.60;99.90
28071;DHT22;15383;48.408;9.968;2024-02-16T00:09:56;10.60;99.90
28071;DHT22;15383;48.408;9.968;2024-02-16T00:12:21;10.60;99.90
28071;DHT22;15383;48.408;9.968;2024-02-16T00:14:47;10.60;99.90
28071;DHT22;15383;48.408;9.968;2024-02-16T00:17:13;10.60;99.90
28071;DHT22;15383;48.408;9.968;2024-02-16T00:19:38;10.60;99.90
28071;DHT22;15383;48.408;9.968;2024-02-16T00:22:04;10.60;99.90
28071;DHT22;15383;48.408;9.968;2024-02-16T00:24:33;10.60;99.90
28071;DHT22;15383;48.408;9.968;2024-02-16T00:26:59;10.60;99.90
28071;DHT22;15383;48.408;9.968;2024-02-16T00:29:25;10.60;99.90
28071;DHT22;15383;48.408;9.968;2024-02-16T00:31:51;10.60;99.90
28071;DHT22;15383;48.408;9.968;2024-02-16T00:34:16;10.60;99.90
28071;DHT22;15383;48.408;9.968;2024-02-16T00:36:42;10.60;99.90
28071;DHT22;15383;48.408;9.968;2024-02-16T00:39:08;10.60;99.90
28071;DHT22;15383;48.408;9.968;2024-02-16T00:41:33;10.60;99.90
28071;DHT22;15383;48.408;9.968;2024-02-16T00:43:59;10.60;99.90
28071;DHT22;15383;48.408;9.968;2024-02-16T00:46:25;10.60;99.90
28071;DHT22;15383;48.408;9.968;2024-02-16T00:48:52;10.60;99.90
28071;DHT22;15383;48.408;9.968;2024-02-16T00:51:17;10.60;99.90
28071;DHT22;15383;48.408;9.968;2024-02-16T00:53:43;10.60;99.90
28071;DHT22;15383;48.408;9.968;2024-02-16T00:56:08;10.60;99.90
28071;DHT22;15383;48.408;9.968;2024-02-16T00:58:35;10.60;99.90
28071;DHT22;15383;48.408;9.968;2024-02-16T01:01:01;10.60;99.90
28071;DHT22;15383;48.408;9.968;2024-02-16T01:03:29;10.60;99.90
28071;DHT22;15383;48.408;9.968;2024-02-16T01:05:54;10.60;99.90
28071;DHT22;15383;48.408;9.968;2024-02-16T01:08:20;10.60;99.90
28071;DHT22;15383;48.408;9.968;2024-02-16T01:10:46;10.60;99.90
28071;DHT22;15383;48.408;9.968;2024-02-16T01:13:12;10.60;99.90
28071;DHT22;15383;48.408;9.968;2024-02-16T01:15:38;10.60;99.90
28071;DHT22;15383;48.408;9.968;2024-02-16T01:18:04;10.60;99.90
28071;DHT22;15383;48.408;9.968;2024-02-16T01:20:30;10.60;99.90
28071;DHT22;15383;48.408;9.968;2024-02-16T01:22:57;10.60;99.90
28071;DHT22;15383;48.408;9.968;2024-02-16T01:25:22;10.60;99.90
28071;DHT22;15383;48.408;9.968;2024-02-16T01:27:48;10.60;99.90
28071;DHT22;15383;48.408;9.968;2024-02-16T01:30:14;10.60;99.90
28071;DHT22;15383;48.408;9.968;2024-02-16T01:32:40;10.50;99.90
28071;DHT22;15383;48.408;9.968;2024-02-16T01:35:06;10.50;99.90
28071;DHT22;15383;48.408;9.968;2024-02-16T01:37:32;10.50;99.90
28071;DHT22;15383;48.408;9.968;2024-02-16T01:39:58;10.50;99.90
28071;DHT22;15383;48.408;9.968;2024-02-16T01:42:24;10.60;99.90
28071;DHT22;15383;48.408;9.968;2024-02-16T01:44:49;10.60;99.90
28071;DHT22;15383;48.408;9.968;2024-02-16T01:47:16;10.60;99.90
28071;DHT22;15383;48.408;9.968;2024-02-16T01:49:42;10.60;99.90
28071;DHT22;15383;48.408;9.968;2024-02-16T01:52:07;10.50;99.90
28071;DHT22;15383;48.408;9.968;2024-02-16T01:54:34;10.50;99.90
28071;DHT22;15383;48.408;9.968;2024-02-16T01:57:00;10.50;99.90
28071;DHT22;15383;48.408;9.968;2024-02-16T01:59:26;10.50;99.90
28071;DHT22;15383;48.408;9.968;2024-02-16T02:01:52;10.50;99.90
28071;DHT22;15383;48.408;9.968;2024-02-16T02:04:18;10.50;99.90
28071;DHT22;15383;48.408;9.968;2024-02-16T02:06:45;10.50;99.90
28071;DHT22;15383;48.408;9.968;2024-02-16T02:09:10;10.50;99.90
28071;DHT22;15383;48.408;9.968;2024-02-16T02:11:36;10.50;99.90
28071;DHT22;15383;48.408;9.968;2024-02-16T02:14:03;10.50;99.90
28071;DHT22;15383;48.408;9.968;2024-02-16T02:16:28;10.50;99.90
28071;DHT22;15383;48.408;9.968;2024-02-16T02:18:54;10.50;99.90
28071;DHT22;15383;48.408;9.968;2024-02-16T02:21:19;10.50;99.90
28071;DHT22;15383;48.408;9.968;2024-02-16T02:23:46;10.50;99.90
28071;DHT22;15383;48.408;9.968;2024-02-16T02:26:14;10.50;99.90
28071;DHT22;15383;48.408;9.968;2024-02-16T02:28:42;10.50;99.90
28071;DHT22;15383;48.408;9.968;2024-02-16T02:31:07;10.50;99.90
28071;DHT22;15383;48.408;9.968;2024-02-16T02:33:34;10.50;99.90
28071;DHT22;15383;48.408;9.968;2024-02-16T02:36:00;10.50;99.90
28071;DHT22;15383;48.408;9.968;2024-02-16T02:38:26;10.50;99.90
28071;DHT22;15383;48.408;9.968;2024-02-16T02:40:52;10.50;99.90
28071;DHT22;15383;48.408;9.968;2024-02-16T02:43:18;10.50;99.90
28071;DHT22;15383;48.408;9.968;2024-02-16T02:45:44;10.50;99.90
28071;DHT22;15383;48.408;9.968;2024-02-16T02:48:10;10.50;99.90
28071;DHT22;15383;48.408;9.968;2024-02-16T02:50:35;10.50;99.90
28071;DHT22;15383;48.408;9.968;2024-02-16T02:53:01;10.50;99.90
28071;DHT22;15383;48.408;9.968;2024-02-16T02:55:26;10.50;99.90
28071;DHT22;15383;48.408;9.968;2024-02-16T02:57:52;10.50;99.90
28071;DHT22;15383;48.408;9.968;2024-02-16T03:00:18;10.50;99.90
28071;DHT22;15383;48.408;9.968;2024-02-16T03:02:43;10.50;99.90
28071;DHT22;15383;48.408;9.968;2024-02-16T03:05:10;10.50;99.90
28071;DHT22;15383;48.408;9.968;2024-02-16T03:07:36;10.50;99.90
28071;DHT22;15383;48.408;9.968;2024-02-16T03:10:02;10.40;99.90
28071;DHT22;15383;48.408;9.968;2024-02-16T03:12:29;10.40;99.90
28071;DHT22;15383;48.408;9.968;2024-02-16T03:14:55;10.50;99.90
28071;DHT22;15383;48.408;9.968;2024-02-16T03:17:20;10.50;99.90
28071;DHT22;15383;48.408;9.968;2024-02-16T03:19:46;10.40;99.90
28071;DHT22;15383;48.408;9.968;2024-02-16T03:22:12;10.40;99.90
28071;DHT22;15383;48.408;9.968;2024-02-16T03:24:38;10.40;99.90
28071;DHT22;15383;48.408;9.968;2024-02-16T03:27:03;10.50;99.90
28071;DHT22;15383;48.408;9.968;2024-02-16T03:29:29;10.40;99.90
28071;DHT22;15383;48.408;9.968;2024-02-16T03:31:55;10.40;99.90
28071;DHT22;15383;48.408;9.968;2024-02-16T03:34:20;10.40;99.90
28071;DHT22;15383;48.408;9.968;2024-02-16T03:36:46;10.40;99.90
28071;DHT22;15383;48.408;9.968;2024-02-16T03:39:11;10.40;99.90
28071;DHT22;15383;48.408;9.968;2024-02-16T03:41:37;10.40;99.90
28071;DHT22;15383;48.408;9.968;2024-02-16T03:44:02;10.40;99.90
28071;DHT22;15383;48.408;9.968;2024-02-16T03:46:28;10.40;99.90
28071;DHT22;15383;48.408;9.968;2024-02-16T03:48:54;10.40;99.90
28071;DHT22;15383;48.408;9.968;2024-02-16T03:51:19;10.40;99.90
28071;DHT22;15383;48.408;9.968;2024-02-16T03:53:45;10.40;99.90
28071;DHT22;15383;48.408;9.968;2024-02-16T03:56:11;10.40;99.90
28071;DHT22;15383;48.408;9.968;2024-02-16T03:58:37;10.40;99.90
28071;DHT22;15383;48.408;9.968;2024-02-16T04:01:04;10.40;99.90
28071;DHT22;15383;48.408;9.968;2024-02-16T04:03:32;10.40;99.90
28071;DHT22;15383;48.408;9.968;2024-02-16T04:05:57;10.40;99.90
28071;DHT22;15383;48.408;9.968;2024-02-16T04:08:25;10.40;99.90
28071;DHT22;15383;48.408;9.968;2024-02-16T04:10:50;10.40;99.90
28071;DHT22;15383;48.408;9.968;2024-02-16T04:13:16;10.40;99.90
28071;DHT22;15383;48.408;9.968;2024-02-16T04:15:41;10.40;99.90
28071;DHT22;15383;48.408;9.968;2024-02-16T04:18:07;10.40;99.90
28071;DHT22;15383;48.408;9.968;2024-02-16T04:20:32;10.40;99.90
28071;DHT22;15383;48.408;9.968;2024-02-16T04:22:58;10.40;99.90
28071;DHT22;15383;48.408;9.968;2024-02-16T04:25:24;10.40;99.90
28071;DHT22;15383;48.408;9.968;2024-02-16T04:27:49;10.40;99.90
28071;DHT22;15383;48.408;9.968;2024-02-16T04:30:15;10.40;99.90
28071;DHT22;15383;48.408;9.968;2024-02-16T04:32:40;10.40;99.90
28071;DHT22;15383;48.408;9.968;2024-02-16T04:35:06;10.40;99.90
28071;DHT22;15383;48.408;9.968;2024-02-16T04:37:37;10.40;99.90
28071;DHT22;15383;48.408;9.968;2024-02-16T04:40:04;10.40;99.90
28071;DHT22;15383;48.408;9.968;2024-02-16T04:42:31;10.40;99.90
28071;DHT22;15383;48.408;9.968;2024-02-16T04:44:56;10.40;99.90
28071;DHT22;15383;48.408;9.968;2024-02-16T04:47:22;10.40;99.90
28071;DHT22;15383;48.408;9.968;2024-02-16T04:49:47;10.40;99.90
28071;DHT22;15383;48.408;9.968;2024-02-16T04:52:13;10.40;99.90
28071;DHT22;15383;48.408;9.968;2024-02-16T04:54:39;10.40;99.90
28071;DHT22;15383;48.408;9.968;2024-02-16T04:57:06;10.40;99.90
28071;DHT22;15383;48.408;9.968;2024-02-16T04:59:31;10.40;99.90
28071;DHT22;15383;48.408;9.968;2024-02-16T05:01:57;10.40;99.90
28071;DHT22;15383;48.408;9.968;2024-02-16T05:04:22;10.40;99.90
28071;DHT22;15383;48.408;9.968;2024-02-16T05:06:48;10.40;99.90
28071;DHT22;15383;48.408;9.968;2024-02-16T05:09:14;10.40;99.90
28071;DHT22;15383;48.408;9.968;2024-02-16T05:11:45;10.40;99.90
28071;DHT22;15383;48.408;9.968;2024-02-16T05:14:11;10.40;99.90
28071;DHT22;15383;48.408;9.968;2024-02-16T05:16:46;10.40;99.90
28071;DHT22;15383;48.408;9.968;2024-02-16T05:19:12;10.40;99.90
28071;DHT22;15383;48.408;9.968;2024-02-16T05:21:38;10.40;99.90
28071;DHT22;15383;48.408;9.968;2024-02-16T05:24:04;10.40;99.90
28071;DHT22;15383;48.408;9.968;2024-02-16T05:26:29;10.40;99.90
28071;DHT22;15383;48.408;9.968;2024-02-16T05:28:55;10.40;99.90
28071;DHT22;15383;48.408;9.968;2024-02-16T05:31:21;10.40;99.90
28071;DHT22;15383;48.408;9.968;2024-02-16T05:33:50;10.40;99.90
28071;DHT22;15383;48.408;9.968;2024-02-16T05:36:20;10.40;99.90
28071;DHT22;15383;48.408;9.968;2024-02-16T05:38:49;10.40;99.90
28071;DHT22;15383;48.408;9.968;2024-02-16T05:41:16;10.40;99.90
28071;DHT22;15383;48.408;9.968;2024-02-16T05:43:43;10.40;99.90
28071;DHT22;15383;48.408;9.968;2024-02-16T05:46:13;10.40;99.90
28071;DHT22;15383;48.408;9.968;2024-02-16T05:48:39;10.40;99.90
28071;DHT22;15383;48.408;9.968;2024-02-16T05:51:06;10.40;99.90
28071;DHT22;15383;48.408;9.968;2024-02-16T05:53:32;10.40;99.90
28071;DHT22;15383;48.408;9.968;2024-02-16T05:55:59;10.40;99.90
28071;DHT22;15383;48.408;9.968;2024-02-16T05:58:25;10.40;99.90
28071;DHT22;15383;48.408;9.968;2024-02-16T06:00:51;10.30;99.90
28071;DHT22;15383;48.408;9.968;2024-02-16T06:03:17;10.40;99.90
28071;DHT22;15383;48.408;9.968;2024-02-16T06:05:43;10.40;99.90
28071;DHT22;15383;48.408;9.968;2024-02-16T06:08:12;10.40;99.90
28071;DHT22;15383;48.408;9.968;2024-02-16T06:10:38;10.30;99.90
28071;DHT22;15383;48.408;9.968;2024-02-16T06:13:04;10.40;99.90
28071;DHT22;15383;48.408;9.968;2024-02-16T06:15:29;10.30;99.90
28071;DHT22;15383;48.408;9.968;2024-02-16T06:17:55;10.40;99.90
28071;DHT22;15383;48.408;9.968;2024-02-16T06:20:21;10.40;99.90
28071;DHT22;15383;48.408;9.968;2024-02-16T06:22:47;10.40;99.90
28071;DHT22;15383;48.408;9.968;2024-02-16T06:25:12;10.30;99.90
28071;DHT22;15383;48.408;9.968;2024-02-16T06:27:38;10.30;99.90
28071;DHT22;15383;48.408;9.968;2024-02-16T06:30:04;10.30;99.90
28071;DHT22;15383;48.408;9.968;2024-02-16T06:32:30;10.40;99.90
28071;DHT22;15383;48.408;9.968;2024-02-16T06:34:56;10.40;99.90
28071;DHT22;15383;48.408;9.968;2024-02-16T06:37:22;10.30;99.90
28071;DHT22;15383;48.408;9.968;2024-02-16T06:39:48;10.30;99.90
28071;DHT22;15383;48.408;9.968;2024-02-16T06:42:13;10.40;99.90
28071;DHT22;15383;48.408;9.968;2024-02-16T06:44:39;10.30;99.90
28071;DHT22;15383;48.408;9.968;2024-02-16T06:47:05;10.30;99.90
28071;DHT22;15383;48.408;9.968;2024-02-16T06:49:31;10.40;99.90
28071;DHT22;15383;48.408;9.968;2024-02-16T06:51:57;10.40;99.90
28071;DHT22;15383;48.408;9.968;2024-02-16T06:54:23;10.40;99.90
28071;DHT22;15383;48.408;9.968;2024-02-16T06:56:49;10.40;99.90
28071;DHT22;15383;48.408;9.968;2024-02-16T06:59:17;10.30;99.90
28071;DHT22;15383;48.408;9.968;2024-02-16T07:01:42;10.40;99.90
28071;DHT22;15383;48.408;9.968;2024-02-16T07:04:08;10.30;99.90
28071;DHT22;15383;48.408;9.968;2024-02-16T07:06:34;10.40;99.90
28071;DHT22;15383;48.408;9.968;2024-02-16T07:09:00;10.40;99.90
28071;DHT22;15383;48.408;9.968;2024-02-16T07:11:26;10.30;99.90
28071;DHT22;15383;48.408;9.968;2024-02-16T07:13:51;10.40;99.90
28071;DHT22;15383;48.408;9.968;2024-02-16T07:16:17;10.30;99.90
28071;DHT22;15383;48.408;9.968;2024-02-16T07:18:44;10.40;99.90
28071;DHT22;15383;48.408;9.968;2024-02-16T07:21:09;10.40;99.90
28071;DHT22;15383;48.408;9.968;2024-02-16T07:23:35;10.40;99.90
28071;DHT22;15383;48.408;9.968;2024-02-16T07:26:01;10.30;99.90
28071;DHT22;15383;48.408;9.968;2024-02-16T07:28:27;10.40;99.90
28071;DHT22;15383;48.408;9.968;2024-02-16T07:30:53;10.40;99.90
28071;DHT22;15383;48.408;9.968;2024-02-16T07:33:19;10.40;99.90
28071;DHT22;15383;48.408;9.968;2024-02-16T07:35:44;10.40;99.90
28071;DHT22;15383;48.408;9.968;2024-02-16T07:38:10;10.40;99.90
28071;DHT22;15383;48.408;9.968;2024-02-16T07:40:36;10.40;99.90
28071;DHT22;15383;48.408;9.968;2024-02-16T07:43:02;10.40;99.90
28071;DHT22;15383;48.408;9.968;2024-02-16T07:45:28;10.40;99.90
28071;DHT22;15383;48.408;9.968;2024-02-16T07:47:55;10.40;99.90
28071;DHT22;15383;48.408;9.968;2024-02-16T07:50:21;10.40;99.90
28071;DHT22;15383;48.408;9.968;2024-02-16T07:52:48;10.50;99.90
28071;DHT22;15383;48.408;9.968;2024-02-16T07:55:14;10.50;99.90
28071;DHT22;15383;48.408;9.968;2024-02-16T07:57:40;10.50;99.90
28071;DHT22;15383;48.408;9.968;2024-02-16T08:00:06;10.50;99.90
28071;DHT22;15383;48.408;9.968;2024-02-16T08:02:32;10.60;99.90
28071;DHT22;15383;48.408;9.968;2024-02-16T08:04:58;10.60;99.90
28071;DHT22;15383;48.408;9.968;2024-02-16T08:07:24;10.60;99.90
28071;DHT22;15383;48.408;9.968;2024-02-16T08:09:50;10.60;99.90
28071;DHT22;15383;48.408;9.968;2024-02-16T08:12:16;10.60;99.90
28071;DHT22;15383;48.408;9.968;2024-02-16T08:14:42;10.60;99.90
28071;DHT22;15383;48.408;9.968;2024-02-16T08:17:08;10.60;99.90
28071;DHT22;15383;48.408;9.968;2024-02-16T08:19:36;10.70;99.90
28071;DHT22;15383;48.408;9.968;2024-02-16T08:22:07;10.60;99.90
28071;DHT22;15383;48.408;9.968;2024-02-16T08:24:36;10.60;99.90
28071;DHT22;15383;48.408;9.968;2024-02-16T08:27:02;10.60;99.90
28071;DHT22;15383;48.408;9.968;2024-02-16T08:29:29;10.70;99.90
28071;DHT22;15383;48.408;9.968;2024-02-16T08:31:55;10.70;99.90
28071;DHT22;15383;48.408;9.968;2024-02-16T08:34:21;10.80;99.90
28071;DHT22;15383;48.408;9.968;2024-02-16T08:36:48;11.00;99.90
28071;DHT22;15383;48.408;9.968;2024-02-16T08:39:15;11.10;99.90
28071;DHT22;15383;48.408;9.968;2024-02-16T08:41:41;11.30;99.90
28071;DHT22;15383;48.408;9.968;2024-02-16T08:44:09;11.40;99.90
28071;DHT22;15383;48.408;9.968;2024-02-16T08:46:35;11.60;99.90
28071;DHT22;15383;48.408;9.968;2024-02-16T08:49:02;11.70;99.90
28071;DHT22;15383;48.408;9.968;2024-02-16T08:51:28;11.90;99.90
28071;DHT22;15383;48.408;9.968;2024-02-16T08:53:54;12.00;99.90
28071;DHT22;15383;48.408;9.968;2024-02-16T08:56:19;12.10;99.90
28071;DHT22;15383;48.408;9.968;2024-02-16T08:58:45;12.10;99.90
28071;DHT22;15383;48.408;9.968;2024-02-16T09:01:10;12.00;99.90
28071;DHT22;15383;48.408;9.968;2024-02-16T09:03:36;11.90;99.90
28071;DHT22;15383;48.408;9.968;2024-02-16T09:06:04;12.00;99.90
28071;DHT22;15383;48.408;9.968;2024-02-16T09:08:30;12.00;99.90
28071;DHT22;15383;48.408;9.968;2024-02-16T09:11:03;12.00;99.90
28071;DHT22;15383;48.408;9.968;2024-02-16T09:13:32;12.10;99.90
28071;DHT22;15383;48.408;9.968;2024-02-16T09:15:59;12.20;99.90
28071;DHT22;15383;48.408;9.968;2024-02-16T09:18:24;12.30;99.90
28071;DHT22;15383;48.408;9.968;2024-02-16T09:20:50;12.40;99.90
28071;DHT22;15383;48.408;9.968;2024-02-16T09:23:15;12.50;99.90
28071;DHT22;15383;48.408;9.968;2024-02-16T09:25:41;12.80;99.90
28071;DHT22;15383;48.408;9.968;2024-02-16T09:28:06;13.00;99.90
28071;DHT22;15383;48.408;9.968;2024-02-16T09:30:32;13.20;99.90
28071;DHT22;15383;48.408;9.968;2024-02-16T09:32:58;13.30;99.90
28071;DHT22;15383;48.408;9.968;2024-02-16T09:35:24;13.50;99.90
28071;DHT22;15383;48.408;9.968;2024-02-16T09:37:49;13.60;99.90
28071;DHT22;15383;48.408;9.968;2024-02-16T09:40:15;13.70;99.90
28071;DHT22;15383;48.408;9.968;2024-02-16T09:42:40;13.80;99.90
28071;DHT22;15383;48.408;9.968;2024-02-16T09:45:07;13.80;99.90
28071;DHT22;15383;48.408;9.968;2024-02-16T09:47:33;13.90;99.90
28071;DHT22;15383;48.408;9.968;2024-02-16T09:50:00;13.90;99.90
28071;DHT22;15383;48.408;9.968;2024-02-16T09:52:26;13.90;99.90
28071;DHT22;15383;48.408;9.968;2024-02-16T09:54:52;13.60;99.90
28071;DHT22;15383;48.408;9.968;2024-02-16T09:57:18;13.30;99.90
28071;DHT22;15383;48.408;9.968;2024-02-16T09:59:44;13.10;99.90
28071;DHT22;15383;48.408;9.968;2024-02-16T10:02:09;12.80;99.90
28071;DHT22;15383;48.408;9.968;2024-02-16T10:04:35;12.60;99.90
28071;DHT22;15383;48.408;9.968;2024-02-16T10:07:01;12.40;99.90
28071;DHT22;15383;48.408;9.968;2024-02-16T10:09:28;12.40;99.90
28071;DHT22;15383;48.408;9.968;2024-02-16T10:12:00;12.30;99.90
28071;DHT22;15383;48.408;9.968;2024-02-16T10:14:25;12.50;99.90
28071;DHT22;15383;48.408;9.968;2024-02-16T10:17:05;12.50;99.90
28071;DHT22;15383;48.408;9.968;2024-02-16T10:19:32;12.60;99.90
28071;DHT22;15383;48.408;9.968;2024-02-16T10:22:08;12.60;99.90
28071;DHT22;15383;48.408;9.968;2024-02-16T10:24:34;12.60;99.90
28071;DHT22;15383;48.408;9.968;2024-02-16T10:27:00;12.60;99.90
28071;DHT22;15383;48.408;9.968;2024-02-16T10:29:27;12.60;99.90
28071;DHT22;15383;48.408;9.968;2024-02-16T10:31:52;12.60;99.90
28071;DHT22;15383;48.408;9.968;2024-02-16T10:34:19;12.60;99.90
28071;DHT22;15383;48.408;9.968;2024-02-16T10:36:46;12.50;99.90
28071;DHT22;15383;48.408;9.968;2024-02-16T10:39:12;12.50;99.90
28071;DHT22;15383;48.408;9.968;2024-02-16T10:41:40;12.50;99.90
28071;DHT22;15383;48.408;9.968;2024-02-16T10:44:07;12.50;99.90
28071;DHT22;15383;48.408;9.968;2024-02-16T10:46:33;12.60;99.90
28071;DHT22;15383;48.408;9.968;2024-02-16T10:48:59;12.60;99.90
28071;DHT22;15383;48.408;9.968;2024-02-16T10:51:32;12.80;99.90
28071;DHT22;15383;48.408;9.968;2024-02-16T10:54:01;13.00;99.90
28071;DHT22;15383;48.408;9.968;2024-02-16T10:56:37;13.20;99.90
28071;DHT22;15383;48.408;9.968;2024-02-16T10:59:07;13.50;99.90
28071;DHT22;15383;48.408;9.968;2024-02-16T11:01:43;13.60;99.90
28071;DHT22;15383;48.408;9.968;2024-02-16T11:04:17;13.70;99.90
28071;DHT22;15383;48.408;9.968;2024-02-16T11:06:53;13.60;99.90
28071;DHT22;15383;48.408;9.968;2024-02-16T11:09:30;13.80;99.90
28071;DHT22;15383;48.408;9.968;2024-02-16T11:12:00;13.80;99.90
28071;DHT22;15383;48.408;9.968;2024-02-16T11:14:36;13.80;99.90
28071;DHT22;15383;48.408;9.968;2024-02-16T11:17:07;14.00;99.90
28071;DHT22;15383;48.408;9.968;2024-02-16T11:19:34;14.00;99.90
28071;DHT22;15383;48.408;9.968;2024-02-16T11:22:05;14.00;99.90
28071;DHT22;15383;48.408;9.968;2024-02-16T11:24:34;13.90;99.90
28071;DHT22;15383;48.408;9.968;2024-02-16T11:27:08;14.20;99.90
28071;DHT22;15383;48.408;9.968;2024-02-16T11:29:35;14.40;99.90
28071;DHT22;15383;48.408;9.968;2024-02-16T11:32:02;14.60;99.90
28071;DHT22;15383;48.408;9.968;2024-02-16T11:34:28;14.60;99.90
28071;DHT22;15383;48.408;9.968;2024-02-16T11:36:58;14.70;99.90
28071;DHT22;15383;48.408;9.968;2024-02-16T11:39:25;14.60;99.90
28071;DHT22;15383;48.408;9.968;2024-02-16T11:42:09;14.50;99.90
28071;DHT22;15383;48.408;9.968;2024-02-16T11:44:36;14.40;99.90
28071;DHT22;15383;48.408;9.968;2024-02-16T11:47:05;14.30;99.90
28071;DHT22;15383;48.408;9.968;2024-02-16T11:49:34;14.30;99.90
28071;DHT22;15383;48.408;9.968;2024-02-16T11:52:00;14.30;99.90
28071;DHT22;15383;48.408;9.968;2024-02-16T11:54:26;14.40;99.90
28071;DHT22;15383;48.408;9.968;2024-02-16T11:56:52;14.30;99.90
28071;DHT22;15383;48.408;9.968;2024-02-16T11:59:21;14.10;99.90
28071;DHT22;15383;48.408;9.968;2024-02-16T12:01:54;13.90;99.90
28071;DHT22;15383;48.408;9.968;2024-02-16T12:04:30;13.80;99.90
28071;DHT22;15383;48.408;9.968;2024-02-16T12:06:57;13.70;99.90
28071;DHT22;15383;48.408;9.968;2024-02-16T12:09:23;13.50;99.90
28071;DHT22;15383;48.408;9.968;2024-02-16T12:11:50;13.50;99.90
28071;DHT22;15383;48.408;9.968;2024-02-16T12:14:17;13.50;99.90
28071;DHT22;15383;48.408;9.968;2024-02-16T12:16:50;13.50;99.90
28071;DHT22;15383;48.408;9.968;2024-02-16T12:19:18;13.50;99.90
28071;DHT22;15383;48.408;9.968;2024-02-16T12:21:44;13.60;99.90
28071;DHT22;15383;48.408;9.968;2024-02-16T12:24:09;13.50;99.90
28071;DHT22;15383;48.408;9.968;2024-02-16T12:26:36;13.40;99.90
28071;DHT22;15383;48.408;9.968;2024-02-16T12:29:02;13.30;99.90
28071;DHT22;15383;48.408;9.968;2024-02-16T12:31:29;13.20;99.90
28071;DHT22;15383;48.408;9.968;2024-02-16T12:33:55;13.10;99.90
28071;DHT22;15383;48.408;9.968;2024-02-16T12:36:20;13.00;99.90
28071;DHT22;15383;48.408;9.968;2024-02-16T12:38:48;12.90;99.90
28071;DHT22;15383;48.408;9.968;2024-02-16T12:41:14;12.80;99.90
28071;DHT22;15383;48.408;9.968;2024-02-16T12:43:40;12.80;99.90
28071;DHT22;15383;48.408;9.968;2024-02-16T12:46:05;12.70;99.90
28071;DHT22;15383;48.408;9.968;2024-02-16T12:48:31;12.80;99.90
28071;DHT22;15383;48.408;9.968;2024-02-16T12:50:56;12.70;99.90
28071;DHT22;15383;48.408;9.968;2024-02-16T12:53:23;12.70;99.90
28071;DHT22;15383;48.408;9.968;2024-02-16T12:55:50;12.70;99.90
28071;DHT22;15383;48.408;9.968;2024-02-16T12:58:16;12.70;99.90
28071;DHT22;15383;48.408;9.968;2024-02-16T13:00:41;12.60;99.90
28071;DHT22;15383;48.408;9.968;2024-02-16T13:03:07;12.60;99.90
28071;DHT22;15383;48.408;9.968;2024-02-16T13:05:33;12.60;99.90
28071;DHT22;15383;48.408;9.968;2024-02-16T13:07:59;12.60;99.90
28071;DHT22;15383;48.408;9.968;2024-02-16T13:10:25;12.60;99.90
28071;DHT22;15383;48.408;9.968;2024-02-16T13:12:50;12.50;99.90
28071;DHT22;15383;48.408;9.968;2024-02-16T13:15:16;12.60;99.90
28071;DHT22;15383;48.408;9.968;2024-02-16T13:17:41;12.60;99.90
28071;DHT22;15383;48.408;9.968;2024-02-16T13:20:07;12.60;99.90
28071;DHT22;15383;48.408;9.968;2024-02-16T13:22:38;12.60;99.90
28071;DHT22;15383;48.408;9.968;2024-02-16T13:25:05;12.50;99.90
28071;DHT22;15383;48.408;9.968;2024-02-16T13:27:32;12.50;99.90
28071;DHT22;15383;48.408;9.968;2024-02-16T13:29:57;12.50;99.90
28071;DHT22;15383;48.408;9.968;2024-02-16T13:32:23;12.50;99.90
28071;DHT22;15383;48.408;9.968;2024-02-16T13:34:49;12.50;99.90
28071;DHT22;15383;48.408;9.968;2024-02-16T13:37:14;12.50;99.90
28071;DHT22;15383;48.408;9.968;2024-02-16T13:39:40;12.50;99.90
28071;DHT22;15383;48.408;9.968;2024-02-16T13:42:06;12.50;99.90
28071;DHT22;15383;48.408;9.968;2024-02-16T13:44:32;12.50;99.90
28071;DHT22;15383;48.408;9.968;2024-02-16T13:46:57;12.50;99.90
28071;DHT22;15383;48.408;9.968;2024-02-16T13:49:23;12.50;99.90
28071;DHT22;15383;48.408;9.968;2024-02-16T13:51:48;12.50;99.90
28071;DHT22;15383;48.408;9.968;2024-02-16T13:54:14;12.50;99.90
28071;DHT22;15383;48.408;9.968;2024-02-16T13:56:40;12.50;99.90
28071;DHT22;15383;48.408;9.968;2024-02-16T13:59:05;12.50;99.90
28071;DHT22;15383;48.408;9.968;2024-02-16T14:01:33;12.50;99.90
28071;DHT22;15383;48.408;9.968;2024-02-16T14:03:59;12.50;99.90
28071;DHT22;15383;48.408;9.968;2024-02-16T14:06:25;12.50;99.90
28071;DHT22;15383;48.408;9.968;2024-02-16T14:08:51;12.40;99.90
28071;DHT22;15383;48.408;9.968;2024-02-16T14:11:18;12.40;99.90
28071;DHT22;15383;48.408;9.968;2024-02-16T14:13:44;12.50;99.90
28071;DHT22;15383;48.408;9.968;2024-02-16T14:16:09;12.60;99.90
28071;DHT22;15383;48.408;9.968;2024-02-16T14:18:36;12.50;99.90
28071;DHT22;15383;48.408;9.968;2024-02-16T14:21:02;12.50;99.90
28071;DHT22;15383;48.408;9.968;2024-02-16T14:23:29;12.40;99.90
28071;DHT22;15383;48.408;9.968;2024-02-16T14:25:55;12.40;99.90
28071;DHT22;15383;48.408;9.968;2024-02-16T14:28:21;12.50;99.90
28071;DHT22;15383;48.408;9.968;2024-02-16T14:30:46;12.50;99.90
28071;DHT22;15383;48.408;9.968;2024-02-16T14:33:12;12.40;99.90
28071;DHT22;15383;48.408;9.968;2024-02-16T14:35:37;12.40;99.90
28071;DHT22;15383;48.408;9.968;2024-02-16T14:38:04;12.40;99.90
28071;DHT22;15383;48.408;9.968;2024-02-16T14:40:32;12.40;99.90
28071;DHT22;15383;48.408;9.968;2024-02-16T14:42:58;12.30;99.90
28071;DHT22;15383;48.408;9.968;2024-02-16T14:45:24;12.30;99.90
28071;DHT22;15383;48.408;9.968;2024-02-16T14:47:50;12.30;99.90
28071;DHT22;15383;48.408;9.968;2024-02-16T14:50:16;12.20;99.90
28071;DHT22;15383;48.408;9.968;2024-02-16T14:52:42;12.20;99.90
28071;DHT22;15383;48.408;9.968;2024-02-16T14:55:10;12.20;99.90
28071;DHT22;15383;48.408;9.968;2024-02-16T14:57:37;12.20;99.90
28071;DHT22;15383;48.408;9.968;2024-02-16T15:00:04;12.20;99.90
28071;DHT22;15383;48.408;9.968;2024-02-16T15:02:29;12.20;99.90
28071;DHT22;15383;48.408;9.968;2024-02-16T15:04:55;12.20;99.90
28071;DHT22;15383;48.408;9.968;2024-02-16T15:07:20;12.20;99.90
28071;DHT22;15383;48.408;9.968;2024-02-16T15:09:46;12.10;99.90
28071;DHT22;15383;48.408;9.968;2024-02-16T15:12:11;12.10;99.90
28071;DHT22;15383;48.408;9.968;2024-02-16T15:14:37;12.10;99.90
28071;DHT22;15383;48.408;9.968;2024-02-16T15:17:03;12.10;99.90
28071;DHT22;15383;48.408;9.968;2024-02-16T15:19:30;12.10;99.90
28071;DHT22;15383;48.408;9.968;2024-02-16T15:21:55;12.00;99.90
28071;DHT22;15383;48.408;9.968;2024-02-16T15:24:21;12.10;99.90